createdAt,value
2022-10-26T00:00:16.285Z,100.00
2022-10-26T00:01:20.551Z,100.00
2022-10-26T00:02:24.957Z,100.00
2022-10-26T00:03:29.098Z,100.00
2022-10-26T00:04:33.358Z,100.00
2022-10-26T00:05:37.696Z,100.00
2022-10-26T00:06:41.889Z,100.00
2022-10-26T00:07:46.164Z,100.00
2022-10-26T00:08:50.409Z,100.00
2022-10-26T00:09:54.669Z,100.00
2022-10-26T00:10:58.922Z,100.00
2022-10-26T00:12:03.275Z,100.00
2022-10-26T00:13:07.454Z,100.00
2022-10-26T00:14:11.697Z,100.00
2022-10-26T00:15:16.009Z,100.00
2022-10-26T00:16:20.290Z,100.00
2022-10-26T00:17:24.530Z,100.00
2022-10-26T00:18:28.770Z,100.00
2022-10-26T00:19:33.075Z,100.00
2022-10-26T00:20:37.320Z,100.00
2022-10-26T00:21:41.555Z,100.00
2022-10-26T00:22:45.792Z,100.00
2022-10-26T00:23:50.081Z,100.00
2022-10-26T00:24:54.372Z,100.00
2022-10-26T00:25:58.618Z,100.00
2022-10-26T00:27:02.870Z,100.00
2022-10-26T00:28:07.171Z,100.00
2022-10-26T00:29:11.469Z,100.00
2022-10-26T00:30:15.705Z,100.00
2022-10-26T00:31:19.988Z,100.00
2022-10-26T00:32:24.310Z,100.00
2022-10-26T00:33:28.532Z,100.00
2022-10-26T00:34:32.783Z,100.00
2022-10-26T00:35:45.441Z,100.00
2022-10-26T00:36:41.321Z,100.00
2022-10-26T00:37:45.744Z,100.00
2022-10-26T00:38:49.856Z,100.00
2022-10-26T00:39:54.152Z,100.00
2022-10-26T00:42:02.649Z,100.00
2022-10-26T00:43:06.920Z,100.00
2022-10-26T00:44:11.187Z,100.00
2022-10-26T00:45:15.431Z,100.00
2022-10-26T00:46:19.706Z,100.00
2022-10-26T00:47:23.964Z,100.00
2022-10-26T00:48:28.264Z,100.00
2022-10-26T00:49:32.496Z,100.00
2022-10-26T00:50:36.798Z,100.00
2022-10-26T00:51:41.080Z,100.00
2022-10-26T00:52:45.512Z,100.00
2022-10-26T00:53:49.727Z,100.00
2022-10-26T00:54:53.982Z,100.00
2022-10-26T00:55:58.211Z,100.00
2022-10-26T00:57:02.497Z,100.00
2022-10-26T00:58:06.746Z,100.00
2022-10-26T00:59:10.998Z,100.00
2022-10-26T01:00:15.252Z,100.00
2022-10-26T01:01:22.586Z,100.00
2022-10-26T01:02:25.822Z,100.00
2022-10-26T01:03:30.099Z,100.00
2022-10-26T01:04:34.276Z,100.00
2022-10-26T01:05:38.595Z,100.00
2022-10-26T01:06:42.858Z,100.00
2022-10-26T01:07:47.386Z,100.00
2022-10-26T01:08:51.363Z,100.00
2022-10-26T01:09:55.645Z,100.00
2022-10-26T01:10:59.897Z,100.00
2022-10-26T01:12:04.203Z,100.00
2022-10-26T01:13:08.412Z,100.00
2022-10-26T01:14:12.738Z,100.00
2022-10-26T01:15:17.107Z,100.00
2022-10-26T01:16:21.303Z,100.00
2022-10-26T01:17:25.581Z,100.00
2022-10-26T01:18:29.845Z,100.00
2022-10-26T01:19:34.186Z,100.00
2022-10-26T01:20:38.388Z,100.00
2022-10-26T01:21:42.684Z,100.00
2022-10-26T01:22:46.922Z,100.00
2022-10-26T01:23:51.206Z,100.00
2022-10-26T01:24:55.465Z,100.00
2022-10-26T01:25:59.715Z,100.00
2022-10-26T01:27:04.049Z,100.00
2022-10-26T01:28:08.271Z,100.00
2022-10-26T01:29:12.504Z,100.00
2022-10-26T01:30:16.854Z,100.00
2022-10-26T01:31:20.986Z,100.00
2022-10-26T01:32:25.322Z,100.00
2022-10-26T01:33:29.530Z,100.00
2022-10-26T01:34:33.807Z,100.00
2022-10-26T01:35:38.163Z,100.00
2022-10-26T01:36:42.379Z,100.00
2022-10-26T01:37:46.986Z,100.00
2022-10-26T01:38:50.995Z,100.00
2022-10-26T01:39:55.234Z,100.00
2022-10-26T01:40:59.414Z,100.00
2022-10-26T01:42:03.669Z,100.00
2022-10-26T01:43:08.027Z,100.00
2022-10-26T01:44:12.249Z,100.00
2022-10-26T01:45:16.470Z,100.00
2022-10-26T01:46:20.740Z,100.00
2022-10-26T01:47:25.045Z,100.00
2022-10-26T01:48:29.304Z,100.00
2022-10-26T01:49:33.535Z,100.00
2022-10-26T01:50:37.799Z,100.00
2022-10-26T01:51:42.156Z,100.00
2022-10-26T01:52:46.198Z,100.00
2022-10-26T01:53:50.550Z,100.00
2022-10-26T01:54:54.766Z,100.00
2022-10-26T01:55:59.023Z,100.00
2022-10-26T01:57:03.294Z,100.00
2022-10-26T01:58:07.629Z,100.00
2022-10-26T01:59:11.877Z,100.00
2022-10-26T02:00:16.106Z,100.00
2022-10-26T02:01:20.386Z,100.00
2022-10-26T02:02:24.584Z,100.00
2022-10-26T02:03:28.969Z,100.00
2022-10-26T02:04:33.089Z,100.00
2022-10-26T02:05:37.388Z,100.00
2022-10-26T02:06:41.808Z,100.00
2022-10-26T02:07:46.071Z,100.00
2022-10-26T02:08:50.121Z,100.00
2022-10-26T02:09:54.368Z,100.00
2022-10-26T02:10:58.700Z,100.00
2022-10-26T02:12:02.956Z,100.00
2022-10-26T02:13:07.274Z,100.00
2022-10-26T02:14:11.502Z,100.00
2022-10-26T02:15:15.713Z,100.00
2022-10-26T02:16:19.885Z,100.00
2022-10-26T02:17:24.171Z,100.00
2022-10-26T02:18:28.414Z,100.00
2022-10-26T02:19:32.722Z,100.00
2022-10-26T02:20:36.929Z,100.00
2022-10-26T02:21:41.184Z,100.00
2022-10-26T02:22:45.453Z,100.00
2022-10-26T02:23:49.709Z,100.00
2022-10-26T02:24:53.983Z,100.00
2022-10-26T02:25:58.289Z,100.00
2022-10-26T02:27:02.533Z,100.00
2022-10-26T02:28:06.854Z,100.00
2022-10-26T02:29:11.082Z,100.00
2022-10-26T02:30:15.327Z,100.00
2022-10-26T02:31:19.604Z,100.00
2022-10-26T02:32:23.847Z,100.00
2022-10-26T02:33:28.097Z,100.00
2022-10-26T02:34:32.354Z,100.00
2022-10-26T02:35:36.683Z,100.00
2022-10-26T02:36:40.912Z,100.00
2022-10-26T02:37:45.394Z,100.00
2022-10-26T02:38:49.377Z,100.00
2022-10-26T02:39:56.704Z,100.00
2022-10-26T02:41:00.031Z,100.00
2022-10-26T02:42:04.259Z,100.00
2022-10-26T02:43:08.499Z,100.00
2022-10-26T02:44:12.762Z,100.00
2022-10-26T02:45:17.035Z,100.00
2022-10-26T02:46:21.238Z,100.00
2022-10-26T02:47:25.479Z,100.00
2022-10-26T02:48:29.702Z,100.00
2022-10-26T02:49:33.965Z,100.00
2022-10-26T02:50:38.227Z,100.00
2022-10-26T02:51:42.580Z,100.00
2022-10-26T02:52:46.918Z,100.00
2022-10-26T02:53:51.081Z,100.00
2022-10-26T02:54:55.259Z,100.00
2022-10-26T02:55:59.586Z,100.00
2022-10-26T02:57:03.743Z,100.00
2022-10-26T02:58:08.007Z,100.00
2022-10-26T02:59:12.310Z,100.00
2022-10-26T03:00:16.559Z,100.00
2022-10-26T03:01:20.856Z,100.00
2022-10-26T03:02:25.121Z,100.00
2022-10-26T03:03:29.354Z,100.00
2022-10-26T03:04:33.649Z,100.00
2022-10-26T03:05:37.889Z,100.00
2022-10-26T03:06:42.127Z,100.00
2022-10-26T03:07:46.377Z,100.00
2022-10-26T03:08:50.590Z,100.00
2022-10-26T03:09:54.969Z,100.00
2022-10-26T03:10:59.243Z,100.00
2022-10-26T03:12:03.495Z,100.00
2022-10-26T03:13:07.701Z,100.00
2022-10-26T03:14:11.973Z,100.00
2022-10-26T03:15:16.197Z,100.00
2022-10-26T03:16:20.421Z,100.00
2022-10-26T03:17:24.685Z,100.00
2022-10-26T03:18:28.829Z,100.00
2022-10-26T03:19:33.201Z,100.00
2022-10-26T03:20:40.418Z,100.00
2022-10-26T03:21:43.763Z,100.00
2022-10-26T03:22:48.027Z,100.00
2022-10-26T03:23:52.442Z,100.00
2022-10-26T03:24:56.738Z,100.00
2022-10-26T03:26:00.997Z,100.00
2022-10-26T03:27:05.301Z,100.00
2022-10-26T03:28:09.680Z,100.00
2022-10-26T03:29:13.922Z,100.00
2022-10-26T03:30:18.212Z,100.00
2022-10-26T03:31:22.507Z,100.00
2022-10-26T03:32:26.719Z,100.00
2022-10-26T03:33:31.023Z,100.00
2022-10-26T03:34:35.338Z,100.00
2022-10-26T03:35:39.660Z,100.00
2022-10-26T03:36:43.936Z,100.00
2022-10-26T03:37:48.552Z,100.00
2022-10-26T03:38:52.527Z,100.00
2022-10-26T03:39:56.815Z,100.00
2022-10-26T03:41:01.084Z,100.00
2022-10-26T03:42:05.288Z,100.00
2022-10-26T03:43:09.639Z,100.00
2022-10-26T03:44:14.012Z,100.00
2022-10-26T03:45:18.238Z,100.00
2022-10-26T03:46:22.500Z,100.00
2022-10-26T03:47:26.773Z,100.00
2022-10-26T03:48:30.957Z,100.00
2022-10-26T03:49:35.286Z,100.00
2022-10-26T03:50:39.594Z,100.00
2022-10-26T03:51:43.923Z,100.00
2022-10-26T03:52:48.353Z,100.00
2022-10-26T03:53:52.399Z,100.00
2022-10-26T03:54:56.642Z,100.00
2022-10-26T03:56:00.904Z,100.00
2022-10-26T03:57:05.120Z,100.00
2022-10-26T03:58:09.477Z,100.00
2022-10-26T03:59:13.775Z,100.00
2022-10-26T04:00:18.073Z,100.00
2022-10-26T04:01:22.395Z,100.00
2022-10-26T04:02:26.636Z,100.00
2022-10-26T04:03:30.922Z,100.00
2022-10-26T04:04:35.435Z,100.00
2022-10-26T04:05:39.569Z,100.00
2022-10-26T04:06:43.911Z,100.00
2022-10-26T04:07:48.564Z,100.00
2022-10-26T04:08:52.441Z,100.00
2022-10-26T04:09:56.762Z,100.00
2022-10-26T04:11:03.773Z,100.00
2022-10-26T04:12:05.339Z,100.00
2022-10-26T04:13:09.595Z,100.00
2022-10-26T04:14:13.840Z,100.00
2022-10-26T04:15:18.136Z,100.00
2022-10-26T04:16:22.395Z,100.00
2022-10-26T04:17:26.690Z,100.00
2022-10-26T04:18:30.975Z,100.00
2022-10-26T04:19:35.268Z,100.00
2022-10-26T04:20:39.642Z,100.00
2022-10-26T04:21:43.891Z,100.00
2022-10-26T04:22:48.084Z,100.00
2022-10-26T04:23:52.538Z,100.00
2022-10-26T04:24:56.810Z,100.00
2022-10-26T04:26:01.061Z,100.00
2022-10-26T04:27:05.339Z,100.00
2022-10-26T04:28:09.736Z,100.00
2022-10-26T04:29:13.956Z,100.00
2022-10-26T04:30:18.245Z,100.00
2022-10-26T04:31:22.547Z,100.00
2022-10-26T04:32:26.820Z,100.00
2022-10-26T04:33:31.086Z,100.00
2022-10-26T04:34:35.441Z,100.00
2022-10-26T04:35:39.705Z,100.00
2022-10-26T04:36:44.021Z,100.00
2022-10-26T04:37:48.348Z,100.00
2022-10-26T04:38:52.628Z,100.00
2022-10-26T04:39:56.986Z,100.00
2022-10-26T04:41:01.177Z,100.00
2022-10-26T04:42:05.374Z,100.00
2022-10-26T04:43:09.764Z,100.00
2022-10-26T04:44:14.085Z,100.00
2022-10-26T04:45:18.427Z,100.00
2022-10-26T04:46:22.702Z,100.00
2022-10-26T04:47:26.975Z,100.00
2022-10-26T04:48:31.276Z,100.00
2022-10-26T04:49:35.533Z,100.00
2022-10-26T04:50:39.816Z,100.00
2022-10-26T04:51:44.126Z,100.00
2022-10-26T04:52:48.671Z,100.00
2022-10-26T04:53:52.726Z,100.00
2022-10-26T04:54:57.093Z,100.00
2022-10-26T04:56:01.338Z,100.00
2022-10-26T04:57:05.501Z,100.00
2022-10-26T04:58:09.872Z,100.00
2022-10-26T04:59:14.072Z,100.00
2022-10-26T05:00:18.416Z,100.00
2022-10-26T05:01:22.901Z,100.00
2022-10-26T05:02:27.074Z,100.00
2022-10-26T05:03:31.247Z,100.00
2022-10-26T05:04:35.535Z,100.00
2022-10-26T05:05:39.974Z,100.00
2022-10-26T05:06:44.158Z,100.00
2022-10-26T05:07:48.659Z,100.00
2022-10-26T05:08:52.646Z,100.00
2022-10-26T05:09:56.952Z,100.00
2022-10-26T05:11:01.140Z,100.00
2022-10-26T05:12:05.470Z,100.00
2022-10-26T05:13:09.768Z,100.00
2022-10-26T05:14:14.073Z,100.00
2022-10-26T05:15:18.332Z,100.00
2022-10-26T05:16:22.598Z,100.00
2022-10-26T05:17:26.929Z,100.00
2022-10-26T05:18:31.243Z,100.00
2022-10-26T05:19:35.502Z,100.00
2022-10-26T05:20:39.803Z,100.00
2022-10-26T05:22:48.611Z,100.00
2022-10-26T05:23:52.629Z,100.00
2022-10-26T05:24:56.906Z,100.00
2022-10-26T05:26:01.212Z,100.00
2022-10-26T05:27:05.571Z,100.00
2022-10-26T05:28:09.892Z,100.00
2022-10-26T05:29:13.930Z,100.00
2022-10-26T05:30:18.346Z,100.00
2022-10-26T05:31:22.677Z,100.00
2022-10-26T05:32:26.936Z,100.00
2022-10-26T05:33:31.194Z,100.00
2022-10-26T05:34:38.245Z,100.00
2022-10-26T05:35:39.783Z,100.00
2022-10-26T05:36:43.995Z,100.00
2022-10-26T05:37:48.335Z,100.00
2022-10-26T05:38:52.629Z,100.00
2022-10-26T05:39:56.927Z,100.00
2022-10-26T05:41:01.184Z,100.00
2022-10-26T05:42:05.498Z,100.00
2022-10-26T05:43:09.777Z,100.00
2022-10-26T05:44:13.943Z,100.00
2022-10-26T05:45:18.291Z,100.00
2022-10-26T05:46:22.581Z,100.00
2022-10-26T05:47:26.855Z,100.00
2022-10-26T05:48:31.203Z,100.00
2022-10-26T05:49:35.522Z,100.00
2022-10-26T05:50:39.794Z,100.00
2022-10-26T05:51:44.085Z,100.00
2022-10-26T05:52:48.357Z,100.00
2022-10-26T05:53:52.670Z,100.00
2022-10-26T05:54:56.982Z,100.00
2022-10-26T05:56:01.199Z,100.00
2022-10-26T05:57:05.491Z,100.00
2022-10-26T05:58:09.774Z,100.00
2022-10-26T05:59:14.049Z,100.00
2022-10-26T06:00:18.294Z,100.00
2022-10-26T06:01:22.773Z,100.00
2022-10-26T06:02:27.003Z,100.00
2022-10-26T06:04:35.550Z,100.00
2022-10-26T06:05:39.782Z,100.00
2022-10-26T06:06:44.161Z,100.00
2022-10-26T06:07:48.828Z,100.00
2022-10-26T06:08:52.798Z,100.00
2022-10-26T06:09:56.939Z,100.00
2022-10-26T06:11:01.253Z,100.00
2022-10-26T06:12:05.531Z,100.00
2022-10-26T06:13:09.786Z,100.00
2022-10-26T06:14:14.049Z,100.00
2022-10-26T06:15:18.374Z,100.00
2022-10-26T06:16:22.659Z,100.00
2022-10-26T06:17:26.930Z,100.00
2022-10-26T06:18:31.332Z,100.00
2022-10-26T06:19:35.568Z,100.00
2022-10-26T06:20:39.778Z,100.00
2022-10-26T06:21:44.094Z,100.00
2022-10-26T06:22:48.658Z,100.00
2022-10-26T06:23:52.657Z,100.00
2022-10-26T06:24:56.954Z,100.00
2022-10-26T06:26:01.224Z,100.00
2022-10-26T06:27:05.602Z,100.00
2022-10-26T06:28:09.838Z,100.00
2022-10-26T06:29:14.130Z,100.00
2022-10-26T06:30:18.428Z,100.00
2022-10-26T06:31:22.807Z,100.00
2022-10-26T06:32:27.025Z,100.00
2022-10-26T06:33:31.742Z,100.00
2022-10-26T06:34:35.624Z,100.00
2022-10-26T06:35:40.001Z,100.00
2022-10-26T06:36:44.405Z,100.00
2022-10-26T06:37:48.941Z,100.00
2022-10-26T06:38:52.873Z,100.00
2022-10-26T06:39:57.154Z,100.00
2022-10-26T06:41:01.411Z,100.00
2022-10-26T06:42:05.770Z,100.00
2022-10-26T06:43:10.125Z,100.00
2022-10-26T06:44:14.370Z,100.00
2022-10-26T06:45:21.609Z,100.00
2022-10-26T06:46:25.013Z,100.00
2022-10-26T06:47:29.262Z,100.00
2022-10-26T06:48:33.522Z,100.00
2022-10-26T06:49:37.819Z,100.00
2022-10-26T06:50:42.095Z,100.00
2022-10-26T06:51:46.384Z,100.00
2022-10-26T06:52:50.720Z,100.00
2022-10-26T06:53:54.877Z,100.00
2022-10-26T06:54:59.185Z,100.00
2022-10-26T06:56:03.467Z,100.00
2022-10-26T06:57:07.636Z,100.00
2022-10-26T06:58:11.971Z,100.00
2022-10-26T06:59:16.302Z,100.00
2022-10-26T07:00:20.566Z,100.00
2022-10-26T07:01:24.961Z,100.00
2022-10-26T07:02:29.176Z,100.00
2022-10-26T07:03:33.306Z,100.00
2022-10-26T07:04:37.526Z,100.00
2022-10-26T07:05:41.764Z,100.00
2022-10-26T07:06:45.998Z,100.00
2022-10-26T07:07:50.548Z,100.00
2022-10-26T07:08:54.494Z,100.00
2022-10-26T07:09:58.771Z,100.00
2022-10-26T07:11:03.090Z,100.00
2022-10-26T07:12:07.348Z,100.00
2022-10-26T07:13:11.711Z,100.00
2022-10-26T07:14:16.064Z,100.00
2022-10-26T07:15:20.185Z,100.00
2022-10-26T07:16:24.545Z,100.00
2022-10-26T07:17:28.775Z,100.00
2022-10-26T07:18:33.129Z,100.00
2022-10-26T07:19:37.338Z,100.00
2022-10-26T07:20:41.654Z,100.00
2022-10-26T07:21:45.938Z,100.00
2022-10-26T07:22:50.217Z,100.00
2022-10-26T07:23:54.450Z,100.00
2022-10-26T07:25:02.067Z,100.00
2022-10-26T07:26:03.199Z,100.00
2022-10-26T07:27:07.307Z,100.00
2022-10-26T07:28:11.589Z,100.00
2022-10-26T07:29:15.848Z,100.00
2022-10-26T07:30:20.183Z,100.00
2022-10-26T07:31:24.559Z,100.00
2022-10-26T07:32:28.756Z,100.00
2022-10-26T07:33:35.832Z,100.00
2022-10-26T07:34:37.277Z,100.00
2022-10-26T07:35:41.598Z,100.00
2022-10-26T07:36:45.997Z,100.00
2022-10-26T07:37:50.165Z,100.00
2022-10-26T07:38:54.507Z,100.00
2022-10-26T07:40:01.470Z,100.00
2022-10-26T07:41:03.085Z,100.00
2022-10-26T07:42:07.345Z,100.00
2022-10-26T07:43:11.644Z,100.00
2022-10-26T07:44:15.919Z,100.00
2022-10-26T07:45:20.203Z,100.00
2022-10-26T07:46:24.522Z,100.00
2022-10-26T07:47:28.803Z,100.00
2022-10-26T07:48:33.147Z,100.00
2022-10-26T07:49:37.363Z,100.00
2022-10-26T07:50:41.773Z,100.00
2022-10-26T07:51:46.035Z,100.00
2022-10-26T07:52:50.773Z,100.00
2022-10-26T07:53:54.735Z,100.00
2022-10-26T07:54:59.094Z,100.00
2022-10-26T07:56:03.327Z,100.00
2022-10-26T07:57:07.592Z,100.00
2022-10-26T07:58:11.800Z,100.00
2022-10-26T07:59:16.149Z,100.00
2022-10-26T08:00:20.488Z,100.00
2022-10-26T08:01:24.916Z,100.00
2022-10-26T08:02:29.093Z,100.00
2022-10-26T08:03:33.425Z,100.00
2022-10-26T08:04:37.693Z,100.00
2022-10-26T08:05:41.940Z,100.00
2022-10-26T08:06:46.358Z,100.00
2022-10-26T08:07:50.973Z,100.00
2022-10-26T08:08:54.822Z,100.00
2022-10-26T08:09:59.183Z,100.00
2022-10-26T08:11:03.519Z,100.00
2022-10-26T08:12:07.823Z,100.00
2022-10-26T08:13:12.084Z,100.00
2022-10-26T08:14:16.483Z,100.00
2022-10-26T08:15:20.710Z,100.00
2022-10-26T08:16:24.888Z,100.00
2022-10-26T08:17:29.226Z,100.00
2022-10-26T08:18:33.628Z,100.00
2022-10-26T08:19:38.001Z,100.00
2022-10-26T08:20:42.217Z,100.00
2022-10-26T08:21:46.505Z,100.00
2022-10-26T08:22:51.359Z,100.00
2022-10-26T08:23:55.024Z,100.00
2022-10-26T08:24:59.385Z,100.00
2022-10-26T08:26:03.567Z,100.00
2022-10-26T08:27:07.908Z,100.00
2022-10-26T08:28:12.237Z,100.00
2022-10-26T08:29:16.478Z,100.00
2022-10-26T08:30:20.764Z,100.00
2022-10-26T08:31:24.999Z,100.00
2022-10-26T08:32:29.313Z,100.00
2022-10-26T08:33:33.655Z,100.00
2022-10-26T08:34:37.977Z,100.00
2022-10-26T08:35:42.192Z,100.00
2022-10-26T08:36:46.525Z,100.00
2022-10-26T08:37:50.941Z,100.00
2022-10-26T08:38:55.214Z,100.00
2022-10-26T08:40:02.214Z,100.00
2022-10-26T08:41:03.752Z,100.00
2022-10-26T08:42:07.966Z,100.00
2022-10-26T08:43:12.338Z,100.00
2022-10-26T08:44:16.648Z,100.00
2022-10-26T08:45:24.435Z,100.00
2022-10-26T08:46:25.360Z,100.00
2022-10-26T08:47:29.631Z,100.00
2022-10-26T08:48:33.970Z,100.00
2022-10-26T08:49:38.176Z,100.00
2022-10-26T08:50:42.923Z,100.00
2022-10-26T08:51:46.784Z,100.00
2022-10-26T08:52:51.120Z,100.00
2022-10-26T08:53:55.428Z,100.00
2022-10-26T08:54:59.766Z,100.00
2022-10-26T08:56:04.035Z,100.00
2022-10-26T08:57:08.350Z,100.00
2022-10-26T08:58:12.710Z,100.00
2022-10-26T08:59:16.946Z,100.00
2022-10-26T09:00:21.251Z,100.00
2022-10-26T09:01:25.643Z,100.00
2022-10-26T09:02:29.844Z,100.00
2022-10-26T09:03:34.236Z,100.00
2022-10-26T09:04:38.479Z,100.00
2022-10-26T09:05:42.763Z,100.00
2022-10-26T09:06:47.068Z,100.00
2022-10-26T09:07:51.971Z,100.00
2022-10-26T09:08:55.833Z,100.00
2022-10-26T09:10:00.121Z,100.00
2022-10-26T09:11:04.419Z,100.00
2022-10-26T09:12:08.840Z,100.00
2022-10-26T09:13:13.168Z,100.00
2022-10-26T09:14:17.432Z,100.00
2022-10-26T09:15:21.789Z,100.00
2022-10-26T09:16:26.119Z,100.00
2022-10-26T09:17:30.415Z,100.00
2022-10-26T09:18:34.726Z,100.00
2022-10-26T09:19:38.986Z,100.00
2022-10-26T09:20:46.235Z,100.00
2022-10-26T09:21:49.638Z,100.00
2022-10-26T09:22:53.848Z,100.00
2022-10-26T09:23:58.131Z,100.00
2022-10-26T09:25:05.436Z,100.00
2022-10-26T09:26:06.772Z,100.00
2022-10-26T09:27:11.023Z,100.00
2022-10-26T09:28:15.381Z,100.00
2022-10-26T09:29:19.790Z,100.00
2022-10-26T09:30:24.053Z,100.00
2022-10-26T09:31:28.299Z,100.00
2022-10-26T09:32:32.580Z,100.00
2022-10-26T09:33:36.831Z,100.00
2022-10-26T09:34:41.164Z,100.00
2022-10-26T09:35:45.502Z,100.00
2022-10-26T09:36:49.706Z,100.00
2022-10-26T09:37:53.987Z,100.00
2022-10-26T09:38:58.291Z,100.00
2022-10-26T09:40:02.545Z,100.00
2022-10-26T09:41:06.896Z,100.00
2022-10-26T09:42:11.222Z,100.00
2022-10-26T09:43:15.542Z,100.00
2022-10-26T09:44:19.795Z,100.00
2022-10-26T09:45:24.261Z,100.00
2022-10-26T09:46:28.466Z,100.00
2022-10-26T09:47:32.816Z,100.00
2022-10-26T09:48:37.094Z,100.00
2022-10-26T09:49:41.447Z,100.00
2022-10-26T09:50:45.679Z,100.00
2022-10-26T09:51:50.146Z,100.00
2022-10-26T09:52:54.361Z,100.00
2022-10-26T09:53:58.753Z,100.00
2022-10-26T09:55:03.081Z,100.00
2022-10-26T09:56:07.320Z,100.00
2022-10-26T09:57:11.692Z,100.00
2022-10-26T09:58:15.934Z,100.00
2022-10-26T09:59:23.214Z,100.00
2022-10-26T10:00:26.596Z,100.00
2022-10-26T10:01:30.962Z,100.00
2022-10-26T10:02:35.266Z,100.00
2022-10-26T10:03:39.539Z,100.00
2022-10-26T10:04:43.809Z,100.00
2022-10-26T10:05:52.485Z,100.00
2022-10-26T10:06:54.473Z,100.00
2022-10-26T10:07:58.805Z,100.00
2022-10-26T10:09:03.144Z,100.00
2022-10-26T10:10:07.377Z,100.00
2022-10-26T10:11:11.579Z,100.00
2022-10-26T10:12:15.924Z,100.00
2022-10-26T10:13:20.286Z,100.00
2022-10-26T10:14:24.561Z,100.00
2022-10-26T10:15:28.871Z,100.00
2022-10-26T10:16:33.212Z,100.00
2022-10-26T10:17:37.551Z,100.00
2022-10-26T10:18:41.943Z,100.00
2022-10-26T10:19:46.215Z,100.00
2022-10-26T10:20:50.483Z,100.00
2022-10-26T10:21:54.758Z,100.00
2022-10-26T10:22:59.059Z,100.00
2022-10-26T10:24:03.547Z,100.00
2022-10-26T10:25:07.770Z,100.00
2022-10-26T10:26:12.113Z,100.00
2022-10-26T10:27:16.395Z,100.00
2022-10-26T10:29:24.985Z,100.00
2022-10-26T10:30:29.245Z,100.00
2022-10-26T10:31:33.555Z,100.00
2022-10-26T10:32:40.581Z,100.00
2022-10-26T10:33:42.140Z,100.00
2022-10-26T10:34:46.501Z,100.00
2022-10-26T10:35:50.753Z,100.00
2022-10-26T10:36:55.154Z,100.00
2022-10-26T10:37:59.499Z,100.00
2022-10-26T10:39:03.747Z,100.00
2022-10-26T10:40:08.136Z,100.00
2022-10-26T10:41:12.415Z,100.00
2022-10-26T10:42:16.734Z,100.00
2022-10-26T10:43:21.053Z,100.00
2022-10-26T10:44:25.379Z,100.00
2022-10-26T10:45:29.671Z,100.00
2022-10-26T10:46:33.966Z,100.00
2022-10-26T10:48:44.705Z,100.00
2022-10-26T10:49:48.989Z,100.00
2022-10-26T10:50:53.288Z,100.00
2022-10-26T10:51:57.664Z,100.00
2022-10-26T10:53:01.909Z,100.00
2022-10-26T10:54:06.225Z,100.00
2022-10-26T10:55:10.647Z,100.00
2022-10-26T10:56:14.969Z,100.00
2022-10-26T10:57:19.250Z,100.00
2022-10-26T10:58:23.650Z,100.00
2022-10-26T10:59:27.968Z,100.00
2022-10-26T11:00:32.244Z,100.00
2022-10-26T11:01:36.656Z,100.00
2022-10-26T11:02:40.936Z,100.00
2022-10-26T11:03:45.227Z,100.00
2022-10-26T11:04:49.575Z,100.00
2022-10-26T11:05:54.046Z,100.00
2022-10-26T11:06:58.313Z,100.00
2022-10-26T11:08:02.580Z,100.00
2022-10-26T11:09:06.933Z,100.00
2022-10-26T11:10:11.288Z,100.00
2022-10-26T11:11:15.546Z,100.00
2022-10-26T11:12:19.979Z,100.00
2022-10-26T11:13:24.250Z,100.00
2022-10-26T11:14:28.643Z,100.00
2022-10-26T11:15:32.994Z,100.00
2022-10-26T11:16:37.301Z,100.00
2022-10-26T11:17:41.645Z,100.00
2022-10-26T11:18:45.965Z,100.00
2022-10-26T11:19:50.332Z,100.00
2022-10-26T11:20:54.640Z,100.00
2022-10-26T11:21:58.957Z,100.00
2022-10-26T11:24:07.645Z,100.00
2022-10-26T11:25:11.997Z,100.00
2022-10-26T11:26:16.301Z,100.00
2022-10-26T11:27:20.741Z,100.00
2022-10-26T11:28:25.076Z,100.00
2022-10-26T11:29:30.923Z,100.00
2022-10-26T11:30:33.726Z,100.00
2022-10-26T11:31:38.180Z,100.00
2022-10-26T11:32:42.381Z,100.00
2022-10-26T11:33:46.885Z,100.00
2022-10-26T11:34:51.078Z,100.00
2022-10-26T11:35:55.420Z,100.00
2022-10-26T11:36:59.821Z,100.00
2022-10-26T11:38:04.089Z,100.00
2022-10-26T11:39:08.387Z,100.00
2022-10-26T11:40:12.810Z,100.00
2022-10-26T11:41:17.011Z,100.00
2022-10-26T11:42:21.457Z,100.00
2022-10-26T11:43:25.754Z,100.00
2022-10-26T11:44:30.108Z,100.00
2022-10-26T11:45:34.501Z,100.00
2022-10-26T11:46:38.795Z,100.00
2022-10-26T11:47:43.192Z,100.00
2022-10-26T11:48:47.482Z,100.00
2022-10-26T11:49:51.802Z,100.00
2022-10-26T11:50:56.131Z,100.00
2022-10-26T11:52:00.538Z,100.00
2022-10-26T11:53:04.857Z,100.00
2022-10-26T11:54:09.225Z,100.00
2022-10-26T11:55:13.455Z,100.00
2022-10-26T11:56:17.861Z,100.00
2022-10-26T11:57:22.278Z,100.00
2022-10-26T11:58:26.595Z,100.00
2022-10-26T11:59:33.286Z,100.00
2022-10-26T12:00:35.422Z,100.00
2022-10-26T12:01:39.703Z,100.00
2022-10-26T12:02:44.163Z,100.00
2022-10-26T12:03:48.544Z,99.16
2022-10-26T12:04:52.799Z,98.34
2022-10-26T12:05:57.141Z,98.35
2022-10-26T12:07:01.518Z,99.03
2022-10-26T12:08:05.896Z,100.00
2022-10-26T12:09:10.130Z,100.00
2022-10-26T12:10:14.513Z,100.00
2022-10-26T12:11:18.909Z,100.00
2022-10-26T12:12:23.224Z,100.00
2022-10-26T12:13:27.517Z,100.00
2022-10-26T12:14:31.854Z,100.00
2022-10-26T12:16:01.754Z,100.00
2022-10-26T12:16:40.635Z,100.00
2022-10-26T12:17:44.899Z,100.00
2022-10-26T12:18:55.469Z,100.00
2022-10-26T12:19:53.605Z,100.00
2022-10-26T12:20:57.980Z,99.74
2022-10-26T12:22:02.333Z,99.65
2022-10-26T12:23:06.684Z,99.74
2022-10-26T12:24:11.051Z,99.42
2022-10-26T12:25:15.774Z,99.37
2022-10-26T12:26:19.983Z,97.87
2022-10-26T12:27:24.182Z,97.30
2022-10-26T12:28:28.629Z,97.41
2022-10-26T12:29:33.063Z,95.28
2022-10-26T12:30:37.386Z,95.40
2022-10-26T12:31:41.679Z,94.96
2022-10-26T12:32:46.109Z,94.42
2022-10-26T12:33:50.483Z,93.91
2022-10-26T12:34:54.800Z,93.70
2022-10-26T12:35:59.217Z,94.26
2022-10-26T12:37:03.585Z,93.56
2022-10-26T12:38:07.934Z,94.45
2022-10-26T12:39:12.374Z,93.89
2022-10-26T12:40:16.706Z,94.15
2022-10-26T12:41:21.068Z,94.32
2022-10-26T12:42:25.454Z,95.24
2022-10-26T12:43:29.956Z,93.79
2022-10-26T12:44:34.199Z,92.50
2022-10-26T12:45:38.562Z,91.33
2022-10-26T12:46:42.922Z,92.13
2022-10-26T12:47:47.628Z,92.92
2022-10-26T12:48:51.684Z,92.75
2022-10-26T12:49:56.028Z,92.56
2022-10-26T12:51:00.458Z,92.95
2022-10-26T12:52:04.862Z,93.00
2022-10-26T12:53:09.278Z,93.14
2022-10-26T12:54:27.621Z,92.31
2022-10-26T12:55:30.846Z,92.64
2022-10-26T12:56:35.141Z,91.83
2022-10-26T12:57:39.531Z,88.22
2022-10-26T12:58:43.864Z,88.88
2022-10-26T12:59:48.332Z,89.65
2022-10-26T13:00:52.754Z,90.19
2022-10-26T13:01:57.140Z,91.12
2022-10-26T13:03:01.452Z,91.28
2022-10-26T13:04:05.776Z,91.74
2022-10-26T13:05:10.250Z,92.24
2022-10-26T13:06:14.631Z,91.67
2022-10-26T13:07:19.054Z,92.18
2022-10-26T13:08:29.401Z,92.03
2022-10-26T13:09:32.363Z,92.41
2022-10-26T13:10:36.773Z,91.86
2022-10-26T13:11:41.189Z,92.03
2022-10-26T13:12:45.607Z,90.57
2022-10-26T13:13:50.016Z,91.40
2022-10-26T13:14:54.281Z,91.21
2022-10-26T13:15:58.701Z,91.40
2022-10-26T13:17:17.357Z,91.23
2022-10-26T13:18:20.658Z,91.43
2022-10-26T13:19:25.118Z,90.62
2022-10-26T13:20:29.391Z,89.91
2022-10-26T13:21:33.781Z,90.24
2022-10-26T13:22:38.173Z,90.30
2022-10-26T13:23:42.484Z,90.60
2022-10-26T13:24:46.893Z,90.73
2022-10-26T13:26:05.333Z,90.97
2022-10-26T13:27:08.745Z,90.98
2022-10-26T13:28:15.545Z,90.29
2022-10-26T13:29:17.409Z,89.88
2022-10-26T13:30:21.827Z,90.49
2022-10-26T13:31:26.155Z,89.98